sensor_id;sensor_type;location;lat;lon;timestamp;pressure;altitude;pressure_sealevel;temperature;humidity
2178;BME280;1095;50.992;6.798;2023-04-22T00:01:37;100147.84;;;9.11;100.00
2178;BME280;1095;50.992;6.798;2023-04-22T00:04:05;100146.84;;;9.04;100.00
2178;BME280;1095;50.992;6.798;2023-04-22T00:06:33;100144.53;;;8.92;100.00
2178;BME280;1095;50.992;6.798;2023-04-22T00:08:59;100146.28;;;8.84;100.00
2178;BME280;1095;50.992;6.798;2023-04-22T00:11:26;100144.72;;;8.65;100.00
2178;BME280;1095;50.992;6.798;2023-04-22T00:13:53;100145.09;;;8.70;100.00
2178;BME280;1095;50.992;6.798;2023-04-22T00:16:19;100143.13;;;8.72;100.00
2178;BME280;1095;50.992;6.798;2023-04-22T00:18:46;100154.53;;;8.71;100.00
2178;BME280;1095;50.992;6.798;2023-04-22T00:21:14;100145.19;;;8.60;100.00
2178;BME280;1095;50.992;6.798;2023-04-22T00:23:40;100146.31;;;8.58;100.00
2178;BME280;1095;50.992;6.798;2023-04-22T00:26:09;100142.22;;;8.55;100.00
2178;BME280;1095;50.992;6.798;2023-04-22T00:28:36;100156.38;;;8.53;100.00
2178;BME280;1095;50.992;6.798;2023-04-22T00:31:03;100157.22;;;8.53;100.00
2178;BME280;1095;50.992;6.798;2023-04-22T00:33:30;100154.13;;;8.50;100.00
2178;BME280;1095;50.992;6.798;2023-04-22T00:35:56;100152.47;;;8.49;100.00
2178;BME280;1095;50.992;6.798;2023-04-22T00:38:24;100150.69;;;8.49;100.00
2178;BME280;1095;50.992;6.798;2023-04-22T00:40:51;100151.22;;;8.61;100.00
2178;BME280;1095;50.992;6.798;2023-04-22T00:43:17;100145.09;;;8.70;100.00
2178;BME280;1095;50.992;6.798;2023-04-22T00:45:45;100142.31;;;8.72;100.00
2178;BME280;1095;50.992;6.798;2023-04-22T00:48:12;100144.78;;;8.73;100.00
2178;BME280;1095;50.992;6.798;2023-04-22T00:50:39;100146.38;;;8.66;100.00
2178;BME280;1095;50.992;6.798;2023-04-22T00:53:06;100144.78;;;8.73;100.00
2178;BME280;1095;50.992;6.798;2023-04-22T00:55:34;100149.84;;;8.75;100.00
2178;BME280;1095;50.992;6.798;2023-04-22T00:58:02;100148.34;;;8.72;100.00
2178;BME280;1095;50.992;6.798;2023-04-22T01:00:28;100154.13;;;8.58;100.00
2178;BME280;1095;50.992;6.798;2023-04-22T01:02:56;100153.53;;;8.64;100.00
2178;BME280;1095;50.992;6.798;2023-04-22T01:05:23;100147.41;;;8.47;100.00
2178;BME280;1095;50.992;6.798;2023-04-22T01:07:50;100154.44;;;8.47;100.00
2178;BME280;1095;50.992;6.798;2023-04-22T01:10:17;100158.91;;;8.37;100.00
2178;BME280;1095;50.992;6.798;2023-04-22T01:12:45;100151.97;;;8.45;100.00
2178;BME280;1095;50.992;6.798;2023-04-22T01:15:12;100148.19;;;8.40;100.00
2178;BME280;1095;50.992;6.798;2023-04-22T01:17:38;100152.78;;;8.46;100.00
2178;BME280;1095;50.992;6.798;2023-04-22T01:20:06;100154.53;;;8.37;100.00
2178;BME280;1095;50.992;6.798;2023-04-22T01:22:36;100153.31;;;8.31;100.00
2178;BME280;1095;50.992;6.798;2023-04-22T01:25:07;100164.72;;;8.30;100.00
2178;BME280;1095;50.992;6.798;2023-04-22T01:27:34;100155.66;;;8.35;100.00
2178;BME280;1095;50.992;6.798;2023-04-22T01:30:01;100161.53;;;8.37;100.00
2178;BME280;1095;50.992;6.798;2023-04-22T01:32:28;100154.00;;;8.34;100.00
2178;BME280;1095;50.992;6.798;2023-04-22T01:34:56;100159.75;;;8.37;100.00
2178;BME280;1095;50.992;6.798;2023-04-22T01:37:23;100159.50;;;8.30;100.00
2178;BME280;1095;50.992;6.798;2023-04-22T01:39:50;100157.84;;;8.29;100.00
2178;BME280;1095;50.992;6.798;2023-04-22T01:42:18;100165.53;;;8.31;100.00
2178;BME280;1095;50.992;6.798;2023-04-22T01:44:45;100158.41;;;8.33;100.00
2178;BME280;1095;50.992;6.798;2023-04-22T01:47:12;100167.25;;;8.40;100.00
2178;BME280;1095;50.992;6.798;2023-04-22T01:49:38;100167.09;;;8.42;100.00
2178;BME280;1095;50.992;6.798;2023-04-22T01:52:05;100158.81;;;8.46;100.00
2178;BME280;1095;50.992;6.798;2023-04-22T01:54:32;100157.38;;;8.52;100.00
2178;BME280;1095;50.992;6.798;2023-04-22T01:56:59;100161.66;;;8.61;100.00
2178;BME280;1095;50.992;6.798;2023-04-22T01:59:27;100160.31;;;8.57;100.00
2178;BME280;1095;50.992;6.798;2023-04-22T02:01:54;100165.38;;;8.58;100.00
2178;BME280;1095;50.992;6.798;2023-04-22T02:04:20;100152.88;;;8.62;100.00
2178;BME280;1095;50.992;6.798;2023-04-22T02:06:47;100157.47;;;8.68;100.00
2178;BME280;1095;50.992;6.798;2023-04-22T02:09:13;100147.34;;;8.65;100.00
2178;BME280;1095;50.992;6.798;2023-04-22T02:11:40;100147.53;;;8.72;100.00
2178;BME280;1095;50.992;6.798;2023-04-22T02:14:07;100142.16;;;8.73;100.00
2178;BME280;1095;50.992;6.798;2023-04-22T02:16:35;100147.03;;;8.68;100.00
2178;BME280;1095;50.992;6.798;2023-04-22T02:19:01;100135.31;;;8.72;100.00
2178;BME280;1095;50.992;6.798;2023-04-22T02:21:28;100135.97;;;8.74;100.00
2178;BME280;1095;50.992;6.798;2023-04-22T02:23:56;100130.72;;;8.66;100.00
2178;BME280;1095;50.992;6.798;2023-04-22T02:26:23;100132.19;;;8.69;100.00
2178;BME280;1095;50.992;6.798;2023-04-22T02:28:50;100123.88;;;8.65;100.00
2178;BME280;1095;50.992;6.798;2023-04-22T02:31:17;100128.06;;;8.58;100.00
2178;BME280;1095;50.992;6.798;2023-04-22T02:33:45;100131.63;;;8.57;100.00
2178;BME280;1095;50.992;6.798;2023-04-22T02:36:11;100125.34;;;8.68;100.00
2178;BME280;1095;50.992;6.798;2023-04-22T02:38:38;100133.53;;;8.73;100.00
2178;BME280;1095;50.992;6.798;2023-04-22T02:41:04;100141.22;;;8.82;100.00
2178;BME280;1095;50.992;6.798;2023-04-22T02:43:31;100136.38;;;8.87;100.00
2178;BME280;1095;50.992;6.798;2023-04-22T02:45:58;100139.16;;;8.94;100.00
2178;BME280;1095;50.992;6.798;2023-04-22T02:48:24;100133.53;;;8.73;100.00
2178;BME280;1095;50.992;6.798;2023-04-22T02:50:52;100129.47;;;8.78;100.00
2178;BME280;1095;50.992;6.798;2023-04-22T02:53:19;100126.81;;;8.70;100.00
2178;BME280;1095;50.992;6.798;2023-04-22T02:55:45;100126.97;;;8.69;100.00
2178;BME280;1095;50.992;6.798;2023-04-22T02:58:12;100125.84;;;8.71;100.00
2178;BME280;1095;50.992;6.798;2023-04-22T03:00:38;100129.13;;;8.73;100.00
2178;BME280;1095;50.992;6.798;2023-04-22T03:03:05;100123.88;;;8.65;100.00
2178;BME280;1095;50.992;6.798;2023-04-22T03:05:32;100126.47;;;8.65;100.00
2178;BME280;1095;50.992;6.798;2023-04-22T03:08:00;100122.28;;;8.72;100.00
2178;BME280;1095;50.992;6.798;2023-04-22T03:10:26;100109.25;;;8.80;100.00
2178;BME280;1095;50.992;6.798;2023-04-22T03:12:53;100113.63;;;8.72;100.00
2178;BME280;1095;50.992;6.798;2023-04-22T03:15:20;100115.50;;;8.87;100.00
2178;BME280;1095;50.992;6.798;2023-04-22T03:17:46;100107.94;;;8.76;100.00
2178;BME280;1095;50.992;6.798;2023-04-22T03:20:13;100113.19;;;8.84;100.00
2178;BME280;1095;50.992;6.798;2023-04-22T03:22:40;100104.75;;;8.90;100.00
2178;BME280;1095;50.992;6.798;2023-04-22T03:25:09;100104.75;;;8.98;100.00
2178;BME280;1095;50.992;6.798;2023-04-22T03:27:36;100108.34;;;9.06;100.00
2178;BME280;1095;50.992;6.798;2023-04-22T03:30:04;100099.22;;;9.10;100.00
2178;BME280;1095;50.992;6.798;2023-04-22T03:32:30;100100.72;;;9.12;100.00
2178;BME280;1095;50.992;6.798;2023-04-22T03:34:57;100100.41;;;9.15;100.00
2178;BME280;1095;50.992;6.798;2023-04-22T03:37:24;100093.38;;;9.16;100.00
2178;BME280;1095;50.992;6.798;2023-04-22T03:39:51;100102.03;;;9.16;100.00
2178;BME280;1095;50.992;6.798;2023-04-22T03:42:19;100104.63;;;9.16;100.00
2178;BME280;1095;50.992;6.798;2023-04-22T03:44:46;100097.47;;;9.18;100.00
2178;BME280;1095;50.992;6.798;2023-04-22T03:47:12;100095.69;;;9.19;100.00
2178;BME280;1095;50.992;6.798;2023-04-22T03:49:39;100087.50;;;9.14;100.00
2178;BME280;1095;50.992;6.798;2023-04-22T03:52:06;100080.50;;;9.14;100.00
2178;BME280;1095;50.992;6.798;2023-04-22T03:54:33;100083.56;;;9.10;100.00
2178;BME280;1095;50.992;6.798;2023-04-22T03:57:00;100077.84;;;9.06;100.00
2178;BME280;1095;50.992;6.798;2023-04-22T03:59:28;100071.81;;;9.06;100.00
2178;BME280;1095;50.992;6.798;2023-04-22T04:01:55;100063.81;;;8.99;100.00
2178;BME280;1095;50.992;6.798;2023-04-22T04:04:21;100069.53;;;9.03;100.00
2178;BME280;1095;50.992;6.798;2023-04-22T04:06:49;100063.34;;;9.04;100.00
2178;BME280;1095;50.992;6.798;2023-04-22T04:09:16;100063.34;;;9.04;100.00
2178;BME280;1095;50.992;6.798;2023-04-22T04:11:42;100063.34;;;8.95;100.00
2178;BME280;1095;50.992;6.798;2023-04-22T04:14:09;100059.41;;;8.91;100.00
2178;BME280;1095;50.992;6.798;2023-04-22T04:16:37;100072.81;;;8.96;100.00
2178;BME280;1095;50.992;6.798;2023-04-22T04:19:04;100069.53;;;9.03;100.00
2178;BME280;1095;50.992;6.798;2023-04-22T04:21:31;100064.31;;;9.03;100.00
2178;BME280;1095;50.992;6.798;2023-04-22T04:23:58;100069.56;;;9.11;100.00
2178;BME280;1095;50.992;6.798;2023-04-22T04:26:25;100058.44;;;9.09;100.00
2178;BME280;1095;50.992;6.798;2023-04-22T04:28:53;100057.78;;;8.98;100.00
2178;BME280;1095;50.992;6.798;2023-04-22T04:31:19;100057.28;;;9.03;100.00
2178;BME280;1095;50.992;6.798;2023-04-22T04:33:47;100059.09;;;9.11;100.00
2178;BME280;1095;50.992;6.798;2023-04-22T04:36:14;100058.63;;;9.07;100.00
2178;BME280;1095;50.992;6.798;2023-04-22T04:38:41;100058.28;;;9.10;100.00
2178;BME280;1095;50.992;6.798;2023-04-22T04:41:08;100062.38;;;9.13;100.00
2178;BME280;1095;50.992;6.798;2023-04-22T04:43:35;100058.28;;;9.10;100.00
2178;BME280;1095;50.992;6.798;2023-04-22T04:46:01;100042.63;;;9.10;100.00
2178;BME280;1095;50.992;6.798;2023-04-22T04:48:28;100046.06;;;9.19;100.00
2178;BME280;1095;50.992;6.798;2023-04-22T04:50:56;100040.84;;;9.19;100.00
2178;BME280;1095;50.992;6.798;2023-04-22T04:53:23;100041.50;;;9.13;100.00
2178;BME280;1095;50.992;6.798;2023-04-22T04:55:49;100027.94;;;9.09;100.00
2178;BME280;1095;50.992;6.798;2023-04-22T04:58:16;100029.59;;;9.10;100.00
2178;BME280;1095;50.992;6.798;2023-04-22T05:00:43;100020.94;;;9.10;100.00
2178;BME280;1095;50.992;6.798;2023-04-22T05:03:09;100018.00;;;9.13;100.00
2178;BME280;1095;50.992;6.798;2023-04-22T05:05:36;100025.84;;;9.21;100.00
2178;BME280;1095;50.992;6.798;2023-04-22T05:08:04;100023.59;;;9.34;100.00
2178;BME280;1095;50.992;6.798;2023-04-22T05:10:30;100031.06;;;9.45;100.00
2178;BME280;1095;50.992;6.798;2023-04-22T05:12:57;100028.47;;;9.53;100.00
2178;BME280;1095;50.992;6.798;2023-04-22T05:15:24;100029.13;;;9.63;100.00
2178;BME280;1095;50.992;6.798;2023-04-22T05:17:50;100020.47;;;9.71;100.00
2178;BME280;1095;50.992;6.798;2023-04-22T05:20:17;100026.16;;;9.83;100.00
2178;BME280;1095;50.992;6.798;2023-04-22T05:22:44;100023.88;;;9.88;100.00
2178;BME280;1095;50.992;6.798;2023-04-22T05:25:12;100017.78;;;10.04;100.00
2178;BME280;1095;50.992;6.798;2023-04-22T05:27:39;100021.84;;;10.14;100.00
2178;BME280;1095;50.992;6.798;2023-04-22T05:30:07;100019.56;;;10.19;100.00
2178;BME280;1095;50.992;6.798;2023-04-22T05:32:34;100016.28;;;10.17;100.00
2178;BME280;1095;50.992;6.798;2023-04-22T05:35:00;100014.97;;;10.29;100.00
2178;BME280;1095;50.992;6.798;2023-04-22T05:37:27;100012.22;;;10.54;100.00
2178;BME280;1095;50.992;6.798;2023-04-22T05:39:55;100011.88;;;10.57;100.00
2178;BME280;1095;50.992;6.798;2023-04-22T05:42:23;100010.72;;;10.59;100.00
2178;BME280;1095;50.992;6.798;2023-04-22T05:44:50;100017.47;;;10.54;100.00
2178;BME280;1095;50.992;6.798;2023-04-22T05:47:16;100009.09;;;10.58;100.00
2178;BME280;1095;50.992;6.798;2023-04-22T05:49:43;100018.44;;;10.53;100.00
2178;BME280;1095;50.992;6.798;2023-04-22T05:52:10;100005.38;;;10.53;100.00
2178;BME280;1095;50.992;6.798;2023-04-22T05:54:36;100020.22;;;10.60;100.00
2178;BME280;1095;50.992;6.798;2023-04-22T05:57:03;100020.66;;;10.72;100.00
2178;BME280;1095;50.992;6.798;2023-04-22T05:59:31;100015.91;;;10.76;100.00
2178;BME280;1095;50.992;6.798;2023-04-22T06:01:57;100011.94;;;10.80;100.00
2178;BME280;1095;50.992;6.798;2023-04-22T06:04:24;100026.84;;;10.79;100.00
2178;BME280;1095;50.992;6.798;2023-04-22T06:06:51;100026.16;;;10.85;100.00
2178;BME280;1095;50.992;6.798;2023-04-22T06:09:18;100023.94;;;10.97;100.00
2178;BME280;1095;50.992;6.798;2023-04-22T06:11:46;100021.84;;;11.15;100.00
2178;BME280;1095;50.992;6.798;2023-04-22T06:14:12;100029.44;;;11.33;100.00
2178;BME280;1095;50.992;6.798;2023-04-22T06:16:40;100028.88;;;11.60;100.00
2178;BME280;1095;50.992;6.798;2023-04-22T06:19:07;100023.63;;;11.60;100.00
2178;BME280;1095;50.992;6.798;2023-04-22T06:21:34;100030.06;;;11.73;100.00
2178;BME280;1095;50.992;6.798;2023-04-22T06:24:04;100010.44;;;12.06;100.00
2178;BME280;1095;50.992;6.798;2023-04-22T06:26:31;100030.81;;;13.70;96.82
2178;BME280;1095;50.992;6.798;2023-04-22T06:29:01;100028.25;;;15.13;91.95
2178;BME280;1095;50.992;6.798;2023-04-22T06:31:29;100012.06;;;15.49;86.43
2178;BME280;1095;50.992;6.798;2023-04-22T06:33:57;100003.53;;;15.93;83.80
2178;BME280;1095;50.992;6.798;2023-04-22T06:36:24;99991.66;;;16.29;80.37
2178;BME280;1095;50.992;6.798;2023-04-22T06:38:51;99993.38;;;16.54;79.58
2178;BME280;1095;50.992;6.798;2023-04-22T06:41:19;99993.53;;;16.73;77.99
2178;BME280;1095;50.992;6.798;2023-04-22T06:43:46;99995.66;;;16.51;79.32
2178;BME280;1095;50.992;6.798;2023-04-22T06:46:14;99991.78;;;15.89;78.83
2178;BME280;1095;50.992;6.798;2023-04-22T06:48:41;99992.41;;;15.51;80.92
2178;BME280;1095;50.992;6.798;2023-04-22T06:51:09;100004.13;;;14.96;82.44
2178;BME280;1095;50.992;6.798;2023-04-22T06:53:35;100008.69;;;14.74;84.39
2178;BME280;1095;50.992;6.798;2023-04-22T06:56:03;99992.53;;;13.95;86.24
2178;BME280;1095;50.992;6.798;2023-04-22T06:58:29;99985.94;;;13.78;87.34
2178;BME280;1095;50.992;6.798;2023-04-22T07:00:56;99994.97;;;13.41;89.12
2178;BME280;1095;50.992;6.798;2023-04-22T07:03:22;99995.22;;;13.46;90.32
2178;BME280;1095;50.992;6.798;2023-04-22T07:05:49;99996.72;;;14.17;90.09
2178;BME280;1095;50.992;6.798;2023-04-22T07:08:17;99994.09;;;14.58;88.58
2178;BME280;1095;50.992;6.798;2023-04-22T07:10:44;99997.34;;;14.74;87.20
2178;BME280;1095;50.992;6.798;2023-04-22T07:13:10;99993.78;;;15.21;85.35
2178;BME280;1095;50.992;6.798;2023-04-22T07:15:37;99982.88;;;15.50;84.16
2178;BME280;1095;50.992;6.798;2023-04-22T07:18:04;99975.66;;;16.62;82.64
2178;BME280;1095;50.992;6.798;2023-04-22T07:20:31;99973.66;;;18.13;78.09
2178;BME280;1095;50.992;6.798;2023-04-22T07:22:57;99967.94;;;18.82;74.45
2178;BME280;1095;50.992;6.798;2023-04-22T07:25:25;99957.56;;;17.96;72.24
2178;BME280;1095;50.992;6.798;2023-04-22T07:27:52;99976.09;;;17.96;73.81
2178;BME280;1095;50.992;6.798;2023-04-22T07:30:19;99973.25;;;18.64;72.61
2178;BME280;1095;50.992;6.798;2023-04-22T07:32:45;99963.63;;;20.05;70.20
2178;BME280;1095;50.992;6.798;2023-04-22T07:35:12;99959.03;;;20.00;68.21
2178;BME280;1095;50.992;6.798;2023-04-22T07:37:42;99950.41;;;19.81;66.36
2178;BME280;1095;50.992;6.798;2023-04-22T07:42:38;99942.50;;;17.78;69.38
2178;BME280;1095;50.992;6.798;2023-04-22T07:45:06;99960.22;;;18.14;69.66
2178;BME280;1095;50.992;6.798;2023-04-22T07:47:33;99952.25;;;18.14;70.22
2178;BME280;1095;50.992;6.798;2023-04-22T07:49:59;99956.94;;;17.33;71.16
2178;BME280;1095;50.992;6.798;2023-04-22T07:52:26;99957.94;;;17.56;71.76
2178;BME280;1095;50.992;6.798;2023-04-22T07:54:54;99954.91;;;18.81;69.75
2178;BME280;1095;50.992;6.798;2023-04-22T07:57:21;99950.19;;;17.98;69.65
2178;BME280;1095;50.992;6.798;2023-04-22T07:59:50;99966.69;;;17.82;70.81
2178;BME280;1095;50.992;6.798;2023-04-22T08:02:17;99947.25;;;18.06;69.65
2178;BME280;1095;50.992;6.798;2023-04-22T08:04:43;99939.00;;;18.33;69.52
2178;BME280;1095;50.992;6.798;2023-04-22T08:07:10;99941.47;;;17.54;70.21
2178;BME280;1095;50.992;6.798;2023-04-22T08:09:36;99944.25;;;17.59;70.98
2178;BME280;1095;50.992;6.798;2023-04-22T08:12:03;99938.00;;;18.15;70.36
2178;BME280;1095;50.992;6.798;2023-04-22T08:14:30;99935.41;;;18.27;70.76
2178;BME280;1095;50.992;6.798;2023-04-22T08:16:58;99927.31;;;18.70;68.82
2178;BME280;1095;50.992;6.798;2023-04-22T08:19:24;99908.06;;;19.28;67.09
2178;BME280;1095;50.992;6.798;2023-04-22T08:21:51;99908.91;;;18.75;67.52
2178;BME280;1095;50.992;6.798;2023-04-22T08:24:17;99896.72;;;18.98;66.97
2178;BME280;1095;50.992;6.798;2023-04-22T08:26:44;99915.22;;;19.63;66.82
2178;BME280;1095;50.992;6.798;2023-04-22T08:29:11;99899.72;;;19.83;66.09
2178;BME280;1095;50.992;6.798;2023-04-22T08:31:38;99903.88;;;19.09;66.89
2178;BME280;1095;50.992;6.798;2023-04-22T08:34:06;99895.69;;;18.87;67.51
2178;BME280;1095;50.992;6.798;2023-04-22T08:36:33;99904.09;;;18.96;68.21
2178;BME280;1095;50.992;6.798;2023-04-22T08:39:00;99905.84;;;18.60;68.40
2178;BME280;1095;50.992;6.798;2023-04-22T08:41:26;99902.44;;;18.71;66.79
2178;BME280;1095;50.992;6.798;2023-04-22T08:43:54;99901.41;;;18.72;68.15
2178;BME280;1095;50.992;6.798;2023-04-22T08:46:22;99900.22;;;19.33;67.68
2178;BME280;1095;50.992;6.798;2023-04-22T08:48:51;99883.47;;;19.21;67.32
2178;BME280;1095;50.992;6.798;2023-04-22T08:51:21;99893.25;;;18.97;66.96
2178;BME280;1095;50.992;6.798;2023-04-22T08:53:48;99892.59;;;19.37;65.86
2178;BME280;1095;50.992;6.798;2023-04-22T08:56:18;99892.63;;;20.00;65.92
2178;BME280;1095;50.992;6.798;2023-04-22T08:58:46;99885.81;;;20.61;63.75
2178;BME280;1095;50.992;6.798;2023-04-22T09:01:14;99865.03;;;20.01;62.93
2178;BME280;1095;50.992;6.798;2023-04-22T09:03:42;99875.00;;;20.51;62.83
2178;BME280;1095;50.992;6.798;2023-04-22T09:06:10;99862.28;;;20.53;61.80
2178;BME280;1095;50.992;6.798;2023-04-22T09:08:38;99868.31;;;20.20;62.57
2178;BME280;1095;50.992;6.798;2023-04-22T09:11:05;99857.41;;;20.62;61.17
2178;BME280;1095;50.992;6.798;2023-04-22T09:13:32;99871.72;;;20.61;62.58
2178;BME280;1095;50.992;6.798;2023-04-22T09:15:58;99857.34;;;20.73;61.25
2178;BME280;1095;50.992;6.798;2023-04-22T09:18:25;99860.19;;;20.55;61.79
2178;BME280;1095;50.992;6.798;2023-04-22T09:20:54;99856.56;;;21.28;59.92
2178;BME280;1095;50.992;6.798;2023-04-22T09:23:21;99865.22;;;20.68;60.70
2178;BME280;1095;50.992;6.798;2023-04-22T09:25:50;99861.06;;;21.44;60.77
2178;BME280;1095;50.992;6.798;2023-04-22T09:28:20;99860.50;;;21.42;58.54
2178;BME280;1095;50.992;6.798;2023-04-22T09:30:48;99848.84;;;21.65;59.04
2178;BME280;1095;50.992;6.798;2023-04-22T09:33:24;99857.78;;;21.20;60.70
2178;BME280;1095;50.992;6.798;2023-04-22T09:36:07;99858.13;;;21.24;59.06
2178;BME280;1095;50.992;6.798;2023-04-22T09:38:34;99852.00;;;20.90;59.22
2178;BME280;1095;50.992;6.798;2023-04-22T09:41:08;99841.13;;;20.92;59.75
2178;BME280;1095;50.992;6.798;2023-04-22T09:43:48;99860.38;;;20.82;59.47
2178;BME280;1095;50.992;6.798;2023-04-22T09:46:18;99856.84;;;20.76;59.95
2178;BME280;1095;50.992;6.798;2023-04-22T09:48:48;99857.16;;;20.63;60.11
2178;BME280;1095;50.992;6.798;2023-04-22T09:51:23;99853.19;;;20.82;59.70
2178;BME280;1095;50.992;6.798;2023-04-22T09:54:18;99831.94;;;20.82;59.23
2178;BME280;1095;50.992;6.798;2023-04-22T09:56:51;99841.09;;;21.64;58.73
2178;BME280;1095;50.992;6.798;2023-04-22T09:59:19;99862.28;;;22.24;59.20
2178;BME280;1095;50.992;6.798;2023-04-22T10:01:48;99860.09;;;22.43;57.77
2178;BME280;1095;50.992;6.798;2023-04-22T10:04:15;99864.72;;;21.82;57.37
2178;BME280;1095;50.992;6.798;2023-04-22T10:09:41;99873.00;;;22.29;58.28
2178;BME280;1095;50.992;6.798;2023-04-22T10:12:10;99860.97;;;22.80;55.88
2178;BME280;1095;50.992;6.798;2023-04-22T10:14:37;99869.19;;;22.47;55.76
2178;BME280;1095;50.992;6.798;2023-04-22T10:17:09;99857.09;;;21.91;57.26
2178;BME280;1095;50.992;6.798;2023-04-22T10:20:10;99863.88;;;21.55;57.35
2178;BME280;1095;50.992;6.798;2023-04-22T10:22:40;99876.78;;;21.46;57.99
2178;BME280;1095;50.992;6.798;2023-04-22T10:28:52;99862.47;;;20.80;59.02
2178;BME280;1095;50.992;6.798;2023-04-22T10:32:54;99894.47;;;21.35;58.26
2178;BME280;1095;50.992;6.798;2023-04-22T10:35:26;99881.63;;;21.49;57.92
2178;BME280;1095;50.992;6.798;2023-04-22T10:37:59;99870.41;;;21.25;57.16
2178;BME280;1095;50.992;6.798;2023-04-22T10:40:29;99880.94;;;21.20;56.96
2178;BME280;1095;50.992;6.798;2023-04-22T10:42:57;99888.66;;;20.88;58.19
2178;BME280;1095;50.992;6.798;2023-04-22T10:45:31;99886.16;;;21.32;58.25
2178;BME280;1095;50.992;6.798;2023-04-22T10:48:01;99877.34;;;21.48;57.21
2178;BME280;1095;50.992;6.798;2023-04-22T10:50:30;99869.88;;;21.67;56.74
2178;BME280;1095;50.992;6.798;2023-04-22T10:52:58;99873.28;;;21.24;57.38
2178;BME280;1095;50.992;6.798;2023-04-22T10:55:48;99880.69;;;20.71;58.21
2178;BME280;1095;50.992;6.798;2023-04-22T10:58:18;99885.34;;;20.64;58.84
2178;BME280;1095;50.992;6.798;2023-04-22T11:00:46;99888.31;;;20.51;59.54
2178;BME280;1095;50.992;6.798;2023-04-22T11:03:24;99888.41;;;20.56;59.45
2178;BME280;1095;50.992;6.798;2023-04-22T11:06:14;99889.84;;;20.64;59.77
2178;BME280;1095;50.992;6.798;2023-04-22T11:08:45;99887.53;;;20.39;60.07
2178;BME280;1095;50.992;6.798;2023-04-22T11:11:13;99879.22;;;20.35;60.72
2178;BME280;1095;50.992;6.798;2023-04-22T11:13:40;99879.38;;;20.57;60.40
2178;BME280;1095;50.992;6.798;2023-04-22T11:16:09;99877.56;;;21.25;60.04
2178;BME280;1095;50.992;6.798;2023-04-22T11:18:36;99861.28;;;21.60;58.28
2178;BME280;1095;50.992;6.798;2023-04-22T11:21:04;99871.53;;;21.95;57.99
2178;BME280;1095;50.992;6.798;2023-04-22T11:23:33;99857.22;;;21.79;57.38
2178;BME280;1095;50.992;6.798;2023-04-22T11:26:03;99856.81;;;21.87;57.02
2178;BME280;1095;50.992;6.798;2023-04-22T11:28:30;99865.47;;;21.77;57.47
2178;BME280;1095;50.992;6.798;2023-04-22T11:31:02;99870.81;;;21.99;57.23
2178;BME280;1095;50.992;6.798;2023-04-22T11:33:31;99858.88;;;22.02;56.87
2178;BME280;1095;50.992;6.798;2023-04-22T11:35:58;99865.91;;;21.91;57.92
2178;BME280;1095;50.992;6.798;2023-04-22T11:38:25;99861.22;;;22.20;57.16
2178;BME280;1095;50.992;6.798;2023-04-22T11:40:54;99852.94;;;22.22;57.25
2178;BME280;1095;50.992;6.798;2023-04-22T11:43:22;99864.53;;;21.89;56.84
2178;BME280;1095;50.992;6.798;2023-04-22T11:45:48;99874.50;;;21.98;57.23
2178;BME280;1095;50.992;6.798;2023-04-22T11:48:15;99875.56;;;21.75;57.46
2178;BME280;1095;50.992;6.798;2023-04-22T11:50:43;99884.38;;;21.37;57.41
2178;BME280;1095;50.992;6.798;2023-04-22T11:53:14;99859.97;;;21.62;58.43
2178;BME280;1095;50.992;6.798;2023-04-22T11:55:42;99872.41;;;21.57;58.43
2178;BME280;1095;50.992;6.798;2023-04-22T11:58:10;99870.50;;;21.35;58.74
2178;BME280;1095;50.992;6.798;2023-04-22T12:00:39;99874.38;;;21.44;59.66
2178;BME280;1095;50.992;6.798;2023-04-22T12:03:12;99868.91;;;21.34;59.55
2178;BME280;1095;50.992;6.798;2023-04-22T12:05:40;99879.53;;;21.34;59.34
2178;BME280;1095;50.992;6.798;2023-04-22T12:08:10;99879.13;;;21.42;59.48
2178;BME280;1095;50.992;6.798;2023-04-22T12:10:42;99869.13;;;21.49;58.81
2178;BME280;1095;50.992;6.798;2023-04-22T12:13:10;99873.31;;;21.45;59.91
2178;BME280;1095;50.992;6.798;2023-04-22T12:15:43;99864.97;;;21.80;59.35
2178;BME280;1095;50.992;6.798;2023-04-22T12:18:10;99866.75;;;21.75;59.02
2178;BME280;1095;50.992;6.798;2023-04-22T12:20:38;99867.22;;;21.67;58.98
2178;BME280;1095;50.992;6.798;2023-04-22T12:23:08;99880.09;;;21.53;60.19
2178;BME280;1095;50.992;6.798;2023-04-22T12:25:36;99868.34;;;21.71;59.90
2178;BME280;1095;50.992;6.798;2023-04-22T12:28:03;99867.38;;;21.82;59.24
2178;BME280;1095;50.992;6.798;2023-04-22T12:30:30;99876.94;;;21.78;60.13
2178;BME280;1095;50.992;6.798;2023-04-22T12:32:57;99864.28;;;21.90;58.77
2178;BME280;1095;50.992;6.798;2023-04-22T12:35:23;99865.09;;;21.91;59.36
2178;BME280;1095;50.992;6.798;2023-04-22T12:37:51;99863.00;;;21.71;59.08
2178;BME280;1095;50.992;6.798;2023-04-22T12:40:19;99874.09;;;21.84;59.67
2178;BME280;1095;50.992;6.798;2023-04-22T12:42:46;99864.34;;;21.51;59.69
2178;BME280;1095;50.992;6.798;2023-04-22T12:45:12;99877.50;;;21.58;59.51
2178;BME280;1095;50.992;6.798;2023-04-22T12:47:40;99867.91;;;21.40;59.11
2178;BME280;1095;50.992;6.798;2023-04-22T12:50:07;99876.19;;;21.61;59.10
2178;BME280;1095;50.992;6.798;2023-04-22T12:52:34;99878.97;;;21.49;59.32
2178;BME280;1095;50.992;6.798;2023-04-22T12:55:00;99876.56;;;21.31;59.53
2178;BME280;1095;50.992;6.798;2023-04-22T12:57:29;99882.38;;;21.28;60.02
2178;BME280;1095;50.992;6.798;2023-04-22T12:59:56;99901.41;;;21.19;60.86
2178;BME280;1095;50.992;6.798;2023-04-22T13:02:23;99900.13;;;21.05;61.32
2178;BME280;1095;50.992;6.798;2023-04-22T13:04:50;99896.78;;;20.65;61.25
2178;BME280;1095;50.992;6.798;2023-04-22T13:07:17;99897.19;;;20.57;61.62
2178;BME280;1095;50.992;6.798;2023-04-22T13:09:43;99902.44;;;20.68;61.55
2178;BME280;1095;50.992;6.798;2023-04-22T13:12:10;99893.56;;;20.63;61.55
2178;BME280;1095;50.992;6.798;2023-04-22T13:14:38;99909.84;;;20.66;63.29
2178;BME280;1095;50.992;6.798;2023-04-22T13:17:05;99918.81;;;20.48;66.10
2178;BME280;1095;50.992;6.798;2023-04-22T13:19:32;99912.59;;;20.43;67.51
2178;BME280;1095;50.992;6.798;2023-04-22T13:22:00;99895.25;;;20.12;67.54
2178;BME280;1095;50.992;6.798;2023-04-22T13:24:26;99895.41;;;19.94;68.28
2178;BME280;1095;50.992;6.798;2023-04-22T13:26:56;99891.94;;;19.93;67.27
2178;BME280;1095;50.992;6.798;2023-04-22T13:29:25;99891.53;;;19.84;67.29